createdAt,value
2022-10-28T00:01:09.489Z,256
2022-10-28T00:03:14.536Z,256
2022-10-28T00:05:20.028Z,256
2022-10-28T00:07:25.189Z,254
2022-10-28T00:09:30.403Z,256
2022-10-28T00:11:35.497Z,256
2022-10-28T00:13:40.838Z,256
2022-10-28T00:15:45.938Z,258
2022-10-28T00:17:51.437Z,270
2022-10-28T00:19:57.878Z,270
2022-10-28T00:22:02.986Z,270
2022-10-28T00:24:08.043Z,268
2022-10-28T00:26:13.261Z,267
2022-10-28T00:28:18.341Z,266
2022-10-28T00:30:23.906Z,266
2022-10-28T00:32:28.937Z,266
2022-10-28T00:34:33.809Z,267
2022-10-28T00:36:39.219Z,267
2022-10-28T00:38:44.473Z,265
2022-10-28T00:40:49.773Z,257
2022-10-28T00:42:56.046Z,256
2022-10-28T00:45:01.829Z,257
2022-10-28T00:47:08.133Z,257
2022-10-28T00:49:12.971Z,257
2022-10-28T00:51:18.474Z,257
2022-10-28T00:53:23.553Z,256
2022-10-28T00:55:28.674Z,256
2022-10-28T00:57:33.768Z,256
2022-10-28T00:59:38.747Z,257
2022-10-28T01:01:44.534Z,257
2022-10-28T01:03:49.923Z,256
2022-10-28T01:05:55.046Z,265
2022-10-28T01:08:00.106Z,265
2022-10-28T01:10:05.355Z,264
2022-10-28T01:12:10.518Z,264
2022-10-28T01:14:15.758Z,264
2022-10-28T01:16:21.125Z,264
2022-10-28T01:18:27.180Z,264
2022-10-28T01:20:37.770Z,262
2022-10-28T01:22:49.488Z,262
2022-10-28T01:24:55.244Z,264
2022-10-28T01:27:00.587Z,262
2022-10-28T01:29:05.773Z,264
2022-10-28T01:31:11.088Z,249
2022-10-28T01:33:16.335Z,253
2022-10-28T01:35:22.416Z,253
2022-10-28T01:37:27.892Z,252
2022-10-28T01:39:33.205Z,254
2022-10-28T01:41:38.839Z,254
2022-10-28T01:43:44.057Z,255
2022-10-28T01:45:49.227Z,254
2022-10-28T01:47:56.273Z,254
2022-10-28T01:50:01.503Z,253
2022-10-28T01:52:07.761Z,254
2022-10-28T01:54:13.146Z,252
2022-10-28T01:56:18.650Z,254
2022-10-28T01:58:24.942Z,249
2022-10-28T02:00:30.751Z,250
2022-10-28T02:02:36.773Z,253
2022-10-28T02:04:44.708Z,253
2022-10-28T02:06:49.906Z,261
2022-10-28T02:08:55.174Z,250
2022-10-28T02:11:00.257Z,252
2022-10-28T02:13:05.494Z,252
2022-10-28T02:15:10.632Z,265
2022-10-28T02:17:15.607Z,264
2022-10-28T02:19:20.929Z,262
2022-10-28T02:21:25.891Z,262
2022-10-28T02:23:30.924Z,262
2022-10-28T02:25:35.887Z,261
2022-10-28T02:27:41.360Z,262
2022-10-28T02:29:46.458Z,255
2022-10-28T02:31:51.979Z,259
2022-10-28T02:33:57.228Z,257
2022-10-28T02:36:02.418Z,256
2022-10-28T02:38:07.456Z,257
2022-10-28T02:40:12.400Z,256
2022-10-28T02:42:17.606Z,254
2022-10-28T02:44:23.057Z,256
2022-10-28T02:46:28.394Z,257
2022-10-28T02:48:33.580Z,257
2022-10-28T02:50:39.137Z,257
2022-10-28T02:52:44.123Z,257
2022-10-28T02:54:49.078Z,259
2022-10-28T02:56:54.309Z,256
2022-10-28T02:58:59.546Z,258
2022-10-28T03:01:04.645Z,256
2022-10-28T03:03:10.021Z,257
2022-10-28T03:05:15.065Z,255
2022-10-28T03:07:20.415Z,254
2022-10-28T03:09:25.694Z,254
2022-10-28T03:11:30.615Z,253
2022-10-28T03:13:35.846Z,252
2022-10-28T03:15:41.487Z,254
2022-10-28T03:17:46.626Z,254
2022-10-28T03:19:51.408Z,255
2022-10-28T03:21:56.373Z,254
2022-10-28T03:24:01.294Z,254
2022-10-28T03:26:07.137Z,255
2022-10-28T03:28:12.205Z,254
2022-10-28T03:30:17.210Z,255
2022-10-28T03:32:23.533Z,252
2022-10-28T03:34:28.472Z,255
2022-10-28T03:36:33.588Z,255
2022-10-28T03:38:38.698Z,262
2022-10-28T03:40:43.898Z,264
2022-10-28T03:42:49.092Z,266
2022-10-28T03:44:54.279Z,266
2022-10-28T03:46:59.715Z,266
2022-10-28T03:49:05.081Z,267
2022-10-28T03:51:10.181Z,266
2022-10-28T03:53:15.156Z,266
2022-10-28T03:55:20.177Z,271
2022-10-28T03:57:25.604Z,271
2022-10-28T03:59:30.864Z,272
2022-10-28T04:01:36.463Z,272
2022-10-28T04:03:41.835Z,272
2022-10-28T04:05:47.193Z,273
2022-10-28T04:07:55.450Z,273
2022-10-28T04:10:00.506Z,272
2022-10-28T04:12:06.927Z,272
2022-10-28T04:14:12.317Z,272
2022-10-28T04:16:17.326Z,272
2022-10-28T04:18:22.386Z,272
2022-10-28T04:20:27.637Z,272
2022-10-28T04:22:32.741Z,270
2022-10-28T04:24:37.929Z,271
2022-10-28T04:26:43.185Z,272
2022-10-28T04:28:48.265Z,272
2022-10-28T04:30:53.568Z,267
2022-10-28T04:33:00.954Z,268
2022-10-28T04:35:06.074Z,267
2022-10-28T04:37:11.327Z,268
2022-10-28T04:39:19.855Z,267
2022-10-28T04:41:25.213Z,267
2022-10-28T04:43:30.532Z,268
2022-10-28T04:45:35.665Z,268
2022-10-28T04:47:41.144Z,268
2022-10-28T04:49:46.425Z,267
2022-10-28T04:51:51.930Z,266
2022-10-28T04:53:56.864Z,268
2022-10-28T04:56:02.771Z,269
2022-10-28T04:58:07.992Z,272
2022-10-28T05:00:13.048Z,268
2022-10-28T05:02:18.908Z,268
2022-10-28T05:04:24.519Z,268
2022-10-28T05:06:29.550Z,267
2022-10-28T05:08:34.670Z,265
2022-10-28T05:10:39.958Z,257
2022-10-28T05:12:45.138Z,256
2022-10-28T05:14:54.768Z,256
2022-10-28T05:17:00.102Z,260
2022-10-28T05:19:05.230Z,258
2022-10-28T05:21:10.431Z,258
2022-10-28T05:23:15.654Z,257
2022-10-28T05:25:21.365Z,257
2022-10-28T05:27:26.583Z,256
2022-10-28T05:29:35.761Z,256
2022-10-28T05:31:40.717Z,256
2022-10-28T05:33:45.913Z,257
2022-10-28T05:35:50.988Z,257
2022-10-28T05:37:56.220Z,259
2022-10-28T05:40:01.346Z,259
2022-10-28T05:42:07.377Z,261
2022-10-28T05:44:13.231Z,258
2022-10-28T05:46:19.365Z,257
2022-10-28T05:48:25.428Z,256
2022-10-28T05:50:30.925Z,255
2022-10-28T05:52:36.347Z,256
2022-10-28T05:54:41.502Z,256
2022-10-28T05:56:46.642Z,255
2022-10-28T05:58:51.730Z,259
2022-10-28T06:00:57.858Z,257
2022-10-28T06:03:03.236Z,258
2022-10-28T06:05:08.489Z,256
2022-10-28T06:07:13.947Z,255
2022-10-28T06:09:19.025Z,257
2022-10-28T06:11:22.718Z,256
2022-10-28T06:13:27.680Z,255
2022-10-28T06:15:33.499Z,255
2022-10-28T06:17:38.693Z,254
2022-10-28T06:19:44.515Z,256
2022-10-28T06:21:50.356Z,256
2022-10-28T06:23:55.767Z,257
2022-10-28T06:26:01.217Z,258
2022-10-28T06:28:11.956Z,256
2022-10-28T06:30:17.304Z,255
2022-10-28T06:32:22.550Z,256
2022-10-28T06:34:27.634Z,256
2022-10-28T06:36:32.988Z,254
2022-10-28T06:38:38.297Z,255
2022-10-28T06:40:43.533Z,256
2022-10-28T06:42:53.394Z,257
2022-10-28T06:44:59.479Z,256
2022-10-28T06:47:06.410Z,256
2022-10-28T06:49:11.936Z,259
2022-10-28T06:51:17.013Z,259
2022-10-28T06:53:22.699Z,257
2022-10-28T06:55:28.289Z,257
2022-10-28T06:57:33.988Z,257
2022-10-28T06:59:39.569Z,257
2022-10-28T07:01:45.622Z,256
2022-10-28T07:03:51.191Z,256
2022-10-28T07:05:57.328Z,256
2022-10-28T07:08:03.371Z,256
2022-10-28T07:10:08.777Z,254
2022-10-28T07:12:15.177Z,256
2022-10-28T07:14:24.445Z,255
2022-10-28T07:16:30.365Z,256
2022-10-28T07:18:36.012Z,257
2022-10-28T07:20:41.897Z,256
2022-10-28T07:22:47.406Z,257
2022-10-28T07:24:52.499Z,259
2022-10-28T07:27:00.642Z,257
2022-10-28T07:29:09.313Z,259
2022-10-28T07:31:15.966Z,259
2022-10-28T07:33:22.106Z,256
2022-10-28T07:35:27.894Z,257
2022-10-28T07:37:33.171Z,257
2022-10-28T07:39:39.697Z,256
2022-10-28T07:41:45.334Z,256
2022-10-28T07:43:50.759Z,257
2022-10-28T07:45:56.224Z,256
2022-10-28T07:48:01.450Z,256
2022-10-28T07:50:06.973Z,256
2022-10-28T07:52:12.165Z,257
2022-10-28T07:54:17.272Z,257
2022-10-28T07:56:22.743Z,257
2022-10-28T07:58:28.522Z,257
2022-10-28T08:00:34.947Z,257
2022-10-28T08:02:41.866Z,259
2022-10-28T08:04:48.958Z,257
2022-10-28T08:06:55.877Z,255
2022-10-28T08:09:01.365Z,255
2022-10-28T08:11:07.489Z,254
2022-10-28T08:13:13.540Z,256
2022-10-28T08:15:18.957Z,255
2022-10-28T08:17:24.457Z,255
2022-10-28T08:19:29.771Z,254
2022-10-28T08:21:35.057Z,255
2022-10-28T08:23:40.480Z,256
2022-10-28T08:25:46.491Z,253
2022-10-28T08:27:52.678Z,256
2022-10-28T08:29:58.020Z,256
2022-10-28T08:32:06.670Z,256
2022-10-28T08:34:12.841Z,255
2022-10-28T08:36:18.850Z,254
2022-10-28T08:38:24.434Z,256
2022-10-28T08:40:29.759Z,255
2022-10-28T08:42:34.932Z,253
2022-10-28T08:44:40.619Z,254
2022-10-28T08:46:46.101Z,255
2022-10-28T08:48:51.722Z,254
2022-10-28T08:50:56.915Z,253
2022-10-28T08:53:03.089Z,255
2022-10-28T08:55:08.804Z,253
2022-10-28T08:57:20.651Z,253
2022-10-28T08:59:25.907Z,252
2022-10-28T09:01:32.056Z,253
2022-10-28T09:03:41.952Z,255
2022-10-28T09:05:47.379Z,255
2022-10-28T09:07:52.712Z,256
2022-10-28T09:09:59.278Z,255
2022-10-28T09:12:04.545Z,254
2022-10-28T09:14:09.814Z,254
2022-10-28T09:16:18.918Z,255
2022-10-28T09:18:24.242Z,255
2022-10-28T09:20:29.626Z,253
2022-10-28T09:22:34.810Z,255
2022-10-28T09:24:40.764Z,254
2022-10-28T09:26:46.748Z,254
2022-10-28T09:28:51.950Z,253
2022-10-28T09:30:57.506Z,253
2022-10-28T09:33:03.127Z,255
2022-10-28T09:35:08.476Z,255
2022-10-28T09:37:13.880Z,254
2022-10-28T09:39:21.750Z,254
2022-10-28T09:41:32.149Z,253
2022-10-28T09:43:37.427Z,254
2022-10-28T09:45:42.769Z,255
2022-10-28T09:47:48.422Z,256
2022-10-28T09:49:55.825Z,255
2022-10-28T09:52:02.071Z,256
2022-10-28T09:54:07.436Z,267
2022-10-28T09:56:13.564Z,266
2022-10-28T09:58:19.305Z,266
2022-10-28T10:00:25.248Z,267
2022-10-28T10:02:30.762Z,267
2022-10-28T10:04:36.061Z,266
2022-10-28T10:06:41.340Z,267
2022-10-28T10:08:46.648Z,266
2022-10-28T10:10:51.955Z,266
2022-10-28T10:12:59.080Z,257
2022-10-28T10:15:05.196Z,257
2022-10-28T10:17:11.107Z,257
2022-10-28T10:19:16.945Z,257
2022-10-28T10:21:22.946Z,256
2022-10-28T10:23:31.384Z,259
2022-10-28T10:25:37.098Z,256
2022-10-28T10:27:42.736Z,256
2022-10-28T10:29:48.572Z,259
2022-10-28T10:31:53.913Z,259
2022-10-28T10:33:59.082Z,257
2022-10-28T10:36:04.413Z,259
2022-10-28T10:38:09.800Z,257
2022-10-28T10:40:16.457Z,259
2022-10-28T10:42:22.149Z,257
2022-10-28T10:44:27.445Z,259
2022-10-28T10:46:32.842Z,257
2022-10-28T10:48:38.248Z,257
2022-10-28T10:50:44.494Z,261
2022-10-28T10:52:50.619Z,257
2022-10-28T10:54:56.557Z,258
2022-10-28T10:57:02.157Z,257
2022-10-28T10:59:07.531Z,259
2022-10-28T11:01:13.079Z,256
2022-10-28T11:03:18.677Z,261
2022-10-28T11:05:38.459Z,259
2022-10-28T11:07:44.165Z,258
2022-10-28T11:09:49.405Z,259
2022-10-28T11:11:54.596Z,259
2022-10-28T11:14:00.443Z,257
2022-10-28T11:16:06.132Z,258
2022-10-28T11:18:11.577Z,256
2022-10-28T11:20:17.396Z,256
2022-10-28T11:22:22.685Z,256
2022-10-28T11:24:28.177Z,256
2022-10-28T11:26:33.568Z,256
2022-10-28T11:28:39.092Z,259
2022-10-28T11:30:44.702Z,254
2022-10-28T11:33:31.008Z,254
2022-10-28T11:35:37.608Z,255
2022-10-28T11:37:42.974Z,255
2022-10-28T11:39:48.427Z,256
2022-10-28T11:41:54.081Z,256
2022-10-28T11:44:06.903Z,256
2022-10-28T11:46:12.114Z,255
2022-10-28T11:48:17.704Z,255
2022-10-28T11:50:23.811Z,267
2022-10-28T11:52:29.702Z,266
2022-10-28T11:54:35.232Z,267
2022-10-28T11:56:40.654Z,266
2022-10-28T11:58:46.259Z,267
2022-10-28T12:00:51.916Z,266
2022-10-28T12:03:00.011Z,266
2022-10-28T12:05:06.108Z,266
2022-10-28T12:07:13.176Z,266
2022-10-28T12:09:19.321Z,266
2022-10-28T12:11:25.292Z,266
2022-10-28T12:13:30.816Z,266
2022-10-28T12:15:36.675Z,266
2022-10-28T12:17:44.237Z,267
2022-10-28T12:19:50.134Z,266
2022-10-28T12:21:56.370Z,265
2022-10-28T12:24:01.920Z,255
2022-10-28T12:26:08.969Z,255
2022-10-28T12:28:18.616Z,256
2022-10-28T12:30:24.859Z,266
2022-10-28T12:32:31.695Z,266
2022-10-28T12:34:38.578Z,265
2022-10-28T12:36:44.814Z,265
2022-10-28T12:38:51.524Z,265
2022-10-28T12:40:58.290Z,266
2022-10-28T12:43:07.284Z,264
2022-10-28T12:45:13.168Z,262
2022-10-28T12:47:18.854Z,252
2022-10-28T12:49:25.599Z,255
2022-10-28T12:51:31.451Z,253
2022-10-28T12:53:38.051Z,254
2022-10-28T12:55:44.370Z,255
2022-10-28T12:57:50.608Z,255
2022-10-28T12:59:57.252Z,255
2022-10-28T13:02:06.815Z,257
2022-10-28T13:04:13.794Z,256
2022-10-28T13:06:20.973Z,255
2022-10-28T13:08:27.483Z,255
2022-10-28T13:10:34.120Z,254
2022-10-28T13:12:42.222Z,253
2022-10-28T13:14:50.016Z,253
2022-10-28T13:16:57.131Z,254
2022-10-28T13:19:03.923Z,252
2022-10-28T13:21:10.396Z,253
2022-10-28T13:23:17.261Z,267
2022-10-28T13:25:23.021Z,270
2022-10-28T13:27:29.507Z,266
2022-10-28T13:29:36.405Z,265
2022-10-28T13:31:42.499Z,259
2022-10-28T13:33:49.251Z,261
2022-10-28T13:35:55.620Z,265
2022-10-28T13:38:02.510Z,261
2022-10-28T13:40:08.785Z,261
2022-10-28T13:42:15.064Z,259
2022-10-28T13:44:21.915Z,262
2022-10-28T13:46:44.182Z,257
2022-10-28T13:48:50.116Z,266
2022-10-28T13:50:55.909Z,257
2022-10-28T13:53:02.368Z,265
2022-10-28T13:55:11.519Z,262
2022-10-28T13:57:18.068Z,259
2022-10-28T13:59:24.909Z,261
2022-10-28T14:01:32.098Z,259
2022-10-28T14:03:39.336Z,259
2022-10-28T14:05:46.799Z,259
2022-10-28T14:07:54.262Z,261
2022-10-28T14:10:01.653Z,255
2022-10-28T14:12:07.761Z,258
2022-10-28T14:14:14.610Z,256
2022-10-28T14:16:21.224Z,256
2022-10-28T14:18:48.915Z,256
2022-10-28T14:20:55.419Z,257
2022-10-28T14:23:23.210Z,256
2022-10-28T14:25:33.013Z,257
2022-10-28T14:27:39.741Z,259
2022-10-28T14:29:46.924Z,254
2022-10-28T14:31:53.282Z,255
2022-10-28T14:34:02.884Z,260
2022-10-28T14:36:11.733Z,262
2022-10-28T14:38:19.153Z,264
2022-10-28T14:40:26.013Z,253
2022-10-28T14:42:46.479Z,259
2022-10-28T14:44:56.647Z,252
2022-10-28T14:47:05.103Z,256
2022-10-28T14:49:16.600Z,261
2022-10-28T14:51:22.752Z,260
2022-10-28T14:53:49.468Z,260
2022-10-28T14:55:55.045Z,266
2022-10-28T14:58:24.176Z,259
2022-10-28T15:00:31.552Z,261
2022-10-28T15:02:58.941Z,254
2022-10-28T15:05:05.270Z,255
2022-10-28T15:07:11.516Z,254
2022-10-28T15:09:59.238Z,259
2022-10-28T15:12:06.849Z,264
2022-10-28T15:14:22.894Z,262
2022-10-28T15:16:30.673Z,267
2022-10-28T15:18:43.621Z,264
2022-10-28T15:21:31.293Z,261
2022-10-28T15:24:00.601Z,261
2022-10-28T15:26:10.632Z,254
2022-10-28T15:28:17.697Z,254
2022-10-28T15:30:24.258Z,254
2022-10-28T15:32:30.993Z,256
2022-10-28T15:34:38.083Z,256
2022-10-28T15:36:45.338Z,253
2022-10-28T15:39:14.396Z,266
2022-10-28T15:41:22.341Z,257
2022-10-28T15:43:31.534Z,265
2022-10-28T15:45:46.141Z,262
2022-10-28T15:47:59.109Z,264
2022-10-28T15:50:07.144Z,264
2022-10-28T15:52:18.512Z,265
2022-10-28T15:54:26.150Z,264
2022-10-28T15:56:34.087Z,266
2022-10-28T15:58:45.593Z,264
2022-10-28T16:00:55.637Z,257
2022-10-28T16:05:37.740Z,259
2022-10-28T16:07:44.587Z,256
2022-10-28T16:09:51.792Z,259
2022-10-28T16:12:05.401Z,258
2022-10-28T16:14:37.153Z,267
2022-10-28T16:16:44.961Z,267
2022-10-28T16:18:52.602Z,262
2022-10-28T16:21:05.155Z,260
2022-10-28T16:23:13.316Z,262
2022-10-28T16:25:22.802Z,261
2022-10-28T16:27:35.873Z,261
2022-10-28T16:29:45.841Z,259
2022-10-28T16:31:54.173Z,259
2022-10-28T16:34:06.777Z,260
2022-10-28T16:36:15.286Z,259
2022-10-28T16:38:23.299Z,261
2022-10-28T16:40:55.523Z,261
2022-10-28T16:43:04.600Z,261
2022-10-28T16:45:12.254Z,253
2022-10-28T16:47:23.661Z,264
2022-10-28T16:49:59.463Z,264
2022-10-28T16:52:08.880Z,262
2022-10-28T16:54:20.562Z,257
2022-10-28T16:56:36.379Z,257
2022-10-28T16:58:46.549Z,262
2022-10-28T17:00:54.740Z,258
2022-10-28T17:03:05.972Z,258
2022-10-28T17:05:13.534Z,264
2022-10-28T17:07:21.479Z,265
2022-10-28T17:09:29.941Z,258
2022-10-28T17:11:42.155Z,256
2022-10-28T17:13:53.398Z,259
2022-10-28T17:16:21.507Z,240
2022-10-28T17:18:40.172Z,256
2022-10-28T17:20:54.165Z,256
2022-10-28T17:23:03.074Z,262
2022-10-28T17:25:10.413Z,266
2022-10-28T17:27:20.382Z,262
2022-10-28T17:29:36.352Z,255
2022-10-28T17:31:48.265Z,256
2022-10-28T17:33:59.156Z,256
2022-10-28T17:36:09.673Z,264
2022-10-28T17:38:16.198Z,262
2022-10-28T17:40:27.743Z,257
2022-10-28T17:42:34.823Z,259
2022-10-28T17:44:47.739Z,258
2022-10-28T17:46:57.273Z,259
2022-10-28T17:49:27.039Z,265
2022-10-28T17:51:38.461Z,266
2022-10-28T17:53:52.747Z,267
2022-10-28T17:56:02.717Z,267
2022-10-28T17:58:19.678Z,264
2022-10-28T18:00:27.927Z,265
2022-10-28T18:02:37.587Z,256
2022-10-28T18:04:58.806Z,256
2022-10-28T18:07:06.109Z,255
2022-10-28T18:09:34.906Z,267
2022-10-28T18:11:44.694Z,265
2022-10-28T18:13:56.086Z,262
2022-10-28T18:16:07.106Z,257
2022-10-28T18:18:16.476Z,262
2022-10-28T18:20:47.373Z,259
2022-10-28T18:23:20.108Z,266
2022-10-28T18:25:28.813Z,262
2022-10-28T18:27:40.874Z,253
2022-10-28T18:29:48.638Z,257
2022-10-28T18:31:58.259Z,258
2022-10-28T18:34:09.018Z,253
2022-10-28T18:36:20.283Z,258
2022-10-28T18:38:38.570Z,256
2022-10-28T18:40:51.045Z,256
2022-10-28T18:43:20.943Z,254
2022-10-28T18:45:31.518Z,265
2022-10-28T18:47:41.434Z,259
2022-10-28T18:49:51.239Z,259
2022-10-28T18:52:12.671Z,257
2022-10-28T18:54:27.022Z,256
2022-10-28T18:56:47.842Z,258
2022-10-28T18:59:05.569Z,264
2022-10-28T19:01:24.371Z,252
2022-10-28T19:03:36.364Z,255
2022-10-28T19:05:44.427Z,268
2022-10-28T19:07:59.329Z,262
2022-10-28T19:10:32.024Z,264
2022-10-28T19:13:01.201Z,264
2022-10-28T19:15:17.549Z,262
2022-10-28T19:17:35.129Z,265
2022-10-28T19:19:46.632Z,257
2022-10-28T19:21:57.361Z,261
2022-10-28T19:24:08.820Z,256
2022-10-28T19:26:42.368Z,255
2022-10-28T19:28:49.826Z,259
2022-10-28T19:31:02.197Z,259
2022-10-28T19:33:15.433Z,257
2022-10-28T19:35:35.090Z,257
2022-10-28T19:37:49.518Z,259
2022-10-28T19:40:01.072Z,259
2022-10-28T19:42:09.526Z,259
2022-10-28T19:44:17.103Z,255
2022-10-28T19:46:29.667Z,261
2022-10-28T19:48:42.345Z,257
2022-10-28T19:50:50.801Z,255
2022-10-28T19:53:42.576Z,262
2022-10-28T19:59:09.675Z,264
2022-10-28T20:01:17.761Z,267
2022-10-28T20:03:34.221Z,261
2022-10-28T20:05:51.198Z,261
2022-10-28T20:08:24.075Z,262
2022-10-28T20:10:35.955Z,260
2022-10-28T20:12:47.293Z,259
2022-10-28T20:15:01.106Z,262
2022-10-28T20:17:12.636Z,259
2022-10-28T20:19:21.271Z,256
2022-10-28T20:21:29.856Z,256
2022-10-28T20:24:01.732Z,256
2022-10-28T20:26:12.021Z,253
2022-10-28T20:28:26.015Z,262
2022-10-28T20:30:33.311Z,260
2022-10-28T20:32:40.564Z,261
2022-10-28T20:34:52.051Z,259
2022-10-28T20:37:02.213Z,257
2022-10-28T20:39:10.634Z,255
2022-10-28T20:41:19.981Z,255
2022-10-28T20:43:27.797Z,254
2022-10-28T20:45:34.749Z,264
2022-10-28T20:47:41.988Z,266
2022-10-28T20:50:09.774Z,265
2022-10-28T20:54:36.222Z,267
2022-10-28T20:56:44.006Z,264
2022-10-28T20:58:51.386Z,264
2022-10-28T21:01:15.944Z,262
2022-10-28T21:03:27.877Z,261
2022-10-28T21:05:34.788Z,261
2022-10-28T21:08:02.090Z,261
2022-10-28T21:10:22.599Z,261
2022-10-28T21:12:32.747Z,262
2022-10-28T21:14:54.967Z,261
2022-10-28T21:17:00.967Z,256
2022-10-28T21:19:09.810Z,258
2022-10-28T21:21:38.119Z,257
2022-10-28T21:23:44.843Z,256
2022-10-28T21:25:54.437Z,255
2022-10-28T21:28:00.656Z,256
2022-10-28T21:30:12.170Z,256
2022-10-28T21:32:32.641Z,253
2022-10-28T21:34:39.402Z,255
2022-10-28T21:37:01.113Z,261
2022-10-28T21:39:08.809Z,261
2022-10-28T21:41:17.681Z,246
2022-10-28T21:43:46.825Z,252
2022-10-28T21:45:53.703Z,249
2022-10-28T21:48:01.857Z,268
2022-10-28T21:50:21.892Z,261
2022-10-28T21:52:30.068Z,252
2022-10-28T21:54:36.062Z,261
2022-10-28T21:56:42.234Z,259
2022-10-28T21:58:47.773Z,255
2022-10-28T22:00:54.056Z,256
2022-10-28T22:03:00.028Z,258
2022-10-28T22:05:10.721Z,257
2022-10-28T22:07:31.567Z,257
2022-10-28T22:09:41.532Z,257
2022-10-28T22:11:50.509Z,256
2022-10-28T22:13:56.378Z,254
2022-10-28T22:16:01.830Z,256
2022-10-28T22:18:07.796Z,255
2022-10-28T22:20:13.555Z,256
2022-10-28T22:22:24.912Z,254
2022-10-28T22:24:45.442Z,254
2022-10-28T22:26:54.638Z,260
2022-10-28T22:29:03.709Z,258
2022-10-28T22:31:51.402Z,256
2022-10-28T22:34:15.547Z,247
2022-10-28T22:36:22.801Z,254
2022-10-28T22:38:28.579Z,264
2022-10-28T22:40:34.996Z,254
2022-10-28T22:42:40.650Z,258
2022-10-28T22:45:07.592Z,262
2022-10-28T22:47:13.409Z,259
2022-10-28T22:49:26.278Z,264
2022-10-28T22:51:34.585Z,265
2022-10-28T22:53:43.951Z,259
2022-10-28T22:55:49.503Z,257
2022-10-28T22:57:56.370Z,257
2022-10-28T23:00:06.969Z,262
2022-10-28T23:02:14.953Z,256
2022-10-28T23:04:37.913Z,266
2022-10-28T23:07:04.846Z,268
2022-10-28T23:09:10.717Z,265
2022-10-28T23:11:16.676Z,261
2022-10-28T23:13:24.356Z,261
2022-10-28T23:15:31.014Z,265
2022-10-28T23:17:41.289Z,257
2022-10-28T23:19:47.045Z,257
2022-10-28T23:21:52.453Z,256
2022-10-28T23:23:58.383Z,257
2022-10-28T23:26:18.466Z,261
2022-10-28T23:28:26.118Z,259
2022-10-28T23:30:34.050Z,262
2022-10-28T23:32:41.351Z,262
2022-10-28T23:34:47.234Z,262
2022-10-28T23:36:52.852Z,261
2022-10-28T23:38:58.684Z,257
2022-10-28T23:41:46.168Z,261
2022-10-28T23:43:53.179Z,256
2022-10-28T23:46:03.868Z,258
2022-10-28T23:48:14.427Z,258
2022-10-28T23:50:23.284Z,257
2022-10-28T23:52:28.648Z,258
2022-10-28T23:54:35.851Z,264
2022-10-28T23:56:55.736Z,261
2022-10-28T23:59:03.219Z,257
